Time;durP1;ratioP1;P1;durP2;ratioP2;P2;SDS_P1;SDS_P2;PMS_P1;PMS_P2;Temp;Humidity;BMP_temperature;BMP_pressure;BME280_temperature;BME280_humidity;BME280_pressure;Samples;Min_cycle;Max_cycle;Signal;HPM_P1;HPM_P2
2021/08/24 00:00:51;;;;;;;10.48;3.80;;;18.50;95.60;;;;;;4999321;28;20185;-67
2021/08/24 00:03:17;;;;;;;8.85;3.50;;;18.50;95.70;;;;;;5000942;28;20203;-66
2021/08/24 00:05:46;;;;;;;7.20;3.70;;;18.50;95.70;;;;;;5001395;28;20921;-67
2021/08/24 00:08:11;;;;;;;6.50;3.47;;;18.50;95.80;;;;;;4998590;28;20249;-66
2021/08/24 00:10:41;;;;;;;10.43;4.05;;;18.40;95.90;;;;;;4998389;28;20208;-64
2021/08/24 00:13:08;;;;;;;10.60;4.00;;;18.40;95.90;;;;;;4997767;28;20724;-65
2021/08/24 00:15:34;;;;;;;7.68;3.88;;;18.40;96.00;;;;;;5000815;28;20186;-67
2021/08/24 00:18:00;;;;;;;9.43;3.95;;;18.40;96.10;;;;;;4998387;28;20219;-67
2021/08/24 00:20:30;;;;;;;12.18;4.65;;;18.40;96.20;;;;;;4997172;28;20185;-67
2021/08/24 00:23:01;;;;;;;8.25;4.20;;;18.30;96.30;;;;;;4999983;28;20653;-65
2021/08/24 00:25:26;;;;;;;9.85;4.10;;;18.30;96.50;;;;;;5001844;28;20188;-65
2021/08/24 00:27:52;;;;;;;10.02;4.32;;;18.30;96.60;;;;;;4997738;28;20243;-66
2021/08/24 00:30:18;;;;;;;7.18;4.20;;;18.30;96.70;;;;;;5004404;28;20227;-65
2021/08/24 00:32:43;;;;;;;;;;;18.30;96.80;;;;;;5007272;28;20131;-67
2021/08/24 00:35:09;;;;;;;;;;;18.20;96.90;;;;;;5002328;28;20192;-64
2021/08/24 00:37:34;;;;;;;;;;;18.20;97.00;;;;;;5003185;28;19950;-68
2021/08/24 00:40:00;;;;;;;;;;;18.20;97.10;;;;;;5005773;28;20000;-65
2021/08/24 00:42:25;;;;;;;10.07;4.55;;;18.20;97.30;;;;;;5000730;28;20004;-68
2021/08/24 00:44:51;;;;;;;9.85;4.72;;;18.20;97.40;;;;;;5001716;28;20189;-67
2021/08/24 00:47:29;;;;;;;11.20;5.03;;;18.20;97.50;;;;;;5003600;28;20189;-66
2021/08/24 00:50:09;;;;;;;12.98;5.05;;;18.10;97.50;;;;;;5003542;28;20224;-65
2021/08/24 00:52:35;;;;;;;9.80;5.00;;;18.10;97.70;;;;;;5003265;28;20380;-67
2021/08/24 00:55:01;;;;;;;9.40;5.00;;;18.10;97.80;;;;;;4985322;28;20310;-67
2021/08/24 00:57:27;;;;;;;10.85;5.30;;;18.10;97.90;;;;;;5002078;28;20547;-66
2021/08/24 00:59:53;;;;;;;10.32;4.75;;;18.00;98.00;;;;;;5003286;28;20197;-65
2021/08/24 01:02:21;;;;;;;12.13;5.32;;;18.00;98.20;;;;;;5002549;28;20641;-65
2021/08/24 01:04:48;;;;;;;8.10;4.70;;;18.00;98.40;;;;;;5003569;28;20358;-64
2021/08/24 01:07:24;;;;;;;7.68;4.80;;;18.00;98.50;;;;;;4981901;28;20209;-66
2021/08/24 01:09:57;;;;;;;10.10;5.07;;;18.00;98.70;;;;;;5003647;28;20196;-66
2021/08/24 01:12:46;;;;;;;13.25;5.60;;;18.00;98.80;;;;;;4981490;28;20228;-69
2021/08/24 01:15:30;;;;;;;10.77;5.40;;;17.90;98.90;;;;;;5000657;28;20189;-67
2021/08/24 01:18:19;;;;;;;9.02;5.45;;;17.90;99.00;;;;;;4996282;28;20200;-65
2021/08/24 01:21:03;;;;;;;12.02;5.60;;;17.90;99.10;;;;;;4984016;28;20211;-66
2021/08/24 01:23:48;;;;;;;12.13;5.65;;;17.90;99.30;;;;;;5004342;28;20653;-66
2021/08/24 01:26:22;;;;;;;10.27;5.70;;;17.90;99.50;;;;;;4987167;28;20192;-66
2021/08/24 01:29:12;;;;;;;8.45;5.68;;;17.80;99.60;;;;;;4998523;28;20184;-67
2021/08/24 01:32:16;;;;;;;11.65;6.40;;;17.80;99.70;;;;;;4985598;28;20193;-65
2021/08/24 01:35:12;;;;;;;12.48;6.45;;;17.80;99.90;;;;;;5001486;28;20192;-67
2021/08/24 01:37:44;;;;;;;13.77;6.22;;;17.70;99.90;;;;;;4995530;28;20283;-67
2021/08/24 01:40:31;;;;;;;13.50;6.20;;;17.70;99.90;;;;;;5001941;28;20636;-67
2021/08/24 01:42:58;;;;;;;12.00;6.43;;;17.70;99.90;;;;;;5002815;28;20192;-65
2021/08/24 01:45:42;;;;;;;11.77;6.70;;;17.70;99.90;;;;;;4995911;28;20220;-65
2021/08/24 01:48:17;;;;;;;13.45;6.82;;;17.70;99.90;;;;;;5003167;28;20192;-66
2021/08/24 01:51:01;;;;;;;11.88;6.43;;;17.70;99.90;;;;;;5000351;28;20208;-65
2021/08/24 01:53:36;;;;;;;13.77;6.60;;;17.70;99.90;;;;;;4986762;28;20652;-65
2021/08/24 01:56:10;;;;;;;15.52;6.95;;;17.70;99.90;;;;;;4999249;28;20190;-66
2021/08/24 01:58:49;;;;;;;19.98;7.65;;;17.70;99.90;;;;;;4984143;28;20199;-66
2021/08/24 02:01:19;;;;;;;15.90;6.95;;;17.70;99.90;;;;;;5002927;28;20706;-64
2021/08/24 02:03:47;;;;;;;;;;;17.60;99.90;;;;;;4986262;28;20195;-66
2021/08/24 02:06:17;;;;;;;13.98;7.18;;;17.60;99.90;;;;;;4998897;28;20191;-66
2021/08/24 02:08:48;;;;;;;17.02;7.20;;;17.70;99.90;;;;;;5002228;28;20196;-66
2021/08/24 02:11:13;;;;;;;16.67;7.47;;;17.60;99.90;;;;;;4999597;28;20286;-67
2021/08/24 02:13:41;;;;;;;;;;;17.60;99.90;;;;;;5002677;28;20767;-65
2021/08/24 02:16:14;;;;;;;21.55;7.07;;;17.60;99.90;;;;;;5001043;28;20434;-66
2021/08/24 02:18:43;;;;;;;15.02;7.28;;;17.60;99.90;;;;;;5002717;28;20638;-65
2021/08/24 02:21:19;;;;;;;19.30;7.97;;;17.60;99.90;;;;;;5003155;28;20196;-65
2021/08/24 02:23:48;;;;;;;11.35;6.88;;;17.50;99.90;;;;;;4999675;28;20189;-69
2021/08/24 02:26:16;;;;;;;14.48;7.43;;;17.60;99.90;;;;;;4985104;28;20192;-68
2021/08/24 02:28:51;;;;;;;13.45;7.15;;;17.50;99.90;;;;;;5001797;28;20234;-68
2021/08/24 02:31:27;;;;;;;14.18;7.20;;;17.50;99.90;;;;;;4994414;28;20277;-64
2021/08/24 02:34:20;;;;;;;14.73;6.95;;;17.50;99.90;;;;;;4999793;28;20185;-65
2021/08/24 02:37:16;;;;;;;15.48;7.63;;;17.50;99.90;;;;;;4998519;28;20188;-66
2021/08/24 02:39:58;;;;;;;12.32;7.65;;;17.40;99.90;;;;;;4957929;28;20216;-65
2021/08/24 02:42:43;;;;;;;;;;;17.40;99.90;;;;;;4984142;28;20188;-66
2021/08/24 02:45:11;;;;;;;;;;;17.40;99.90;;;;;;5000431;28;19949;-65
2021/08/24 02:47:38;;;;;;;13.88;7.22;;;17.40;99.90;;;;;;4999494;28;19977;-65
2021/08/24 02:50:07;;;;;;;10.85;7.30;;;17.30;99.90;;;;;;4999491;28;20221;-68
2021/08/24 02:52:35;;;;;;;10.93;6.85;;;17.30;99.90;;;;;;5000516;28;20659;-66
2021/08/24 02:55:01;;;;;;;16.17;7.97;;;17.30;99.90;;;;;;4999888;28;20197;-66
2021/08/24 02:57:27;;;;;;;15.02;7.47;;;17.40;99.90;;;;;;5000794;28;20181;-65
2021/08/24 02:59:53;;;;;;;12.57;6.78;;;17.40;99.90;;;;;;5002569;28;20184;-68
2021/08/24 03:02:19;;;;;;;19.42;7.65;;;17.40;99.90;;;;;;4994500;28;20724;-67
2021/08/24 03:04:45;;;;;;;15.48;6.78;;;17.40;99.90;;;;;;5004609;28;20523;-65
2021/08/24 03:07:18;;;;;;;16.58;7.90;;;17.40;99.90;;;;;;5002154;28;20276;-64
2021/08/24 03:09:46;;;;;;;12.60;7.00;;;17.40;99.90;;;;;;4999809;28;20214;-65
2021/08/24 03:12:39;;;;;;;15.23;7.45;;;17.30;99.90;;;;;;4998727;28;20186;-64
2021/08/24 03:15:45;;;;;;;10.88;6.75;;;17.40;99.90;;;;;;4980928;28;20196;-66
2021/08/24 03:18:18;;;;;;;15.60;7.65;;;17.30;99.90;;;;;;4985292;28;20570;-66
2021/08/24 03:20:48;;;;;;;14.73;7.60;;;17.40;99.90;;;;;;5001931;28;20203;-66
2021/08/24 03:23:17;;;;;;;12.88;7.50;;;17.30;99.90;;;;;;4982504;28;20197;-66
2021/08/24 03:25:46;;;;;;;15.18;7.65;;;17.30;99.90;;;;;;5001685;28;20196;-65
2021/08/24 03:28:18;;;;;;;20.17;7.97;;;17.30;99.90;;;;;;4999535;28;20651;-66
2021/08/24 03:30:44;;;;;;;14.98;7.63;;;17.30;99.90;;;;;;5002277;28;20220;-65
2021/08/24 03:33:13;;;;;;;15.90;7.90;;;17.20;99.90;;;;;;4979831;28;20196;-65
2021/08/24 03:35:39;;;;;;;11.40;7.55;;;17.30;99.90;;;;;;4994686;28;20190;-64
2021/08/24 03:38:05;;;;;;;11.90;8.05;;;17.30;99.90;;;;;;5001993;28;20207;-66
2021/08/24 03:40:32;;;;;;;13.13;7.38;;;17.30;99.90;;;;;;5000175;28;20180;-65
2021/08/24 03:42:58;;;;;;;11.35;7.45;;;17.30;99.90;;;;;;4999806;28;20293;-66
2021/08/24 03:45:24;;;;;;;14.00;7.63;;;17.30;99.90;;;;;;5001830;28;20196;-65
2021/08/24 03:47:50;;;;;;;17.73;8.05;;;17.30;99.90;;;;;;4999057;28;20191;-66
2021/08/24 03:50:15;;;;;;;16.67;8.23;;;17.30;99.90;;;;;;5001050;28;20209;-67
2021/08/24 03:52:41;;;;;;;13.38;7.90;;;17.30;99.90;;;;;;4998558;28;20188;-65
2021/08/24 03:55:07;;;;;;;13.85;8.18;;;17.30;99.90;;;;;;4998715;28;20180;-67
2021/08/24 03:57:33;;;;;;;12.70;7.50;;;17.30;99.90;;;;;;4983053;28;20184;-65
2021/08/24 03:59:58;;;;;;;12.73;7.68;;;17.30;99.90;;;;;;4998313;28;20083;-66
2021/08/24 04:02:26;;;;;;;12.65;7.65;;;17.30;99.90;;;;;;4995615;28;20234;-68
2021/08/24 04:04:51;;;;;;;10.13;7.38;;;17.30;99.90;;;;;;5001577;28;20193;-66
2021/08/24 04:07:17;;;;;;;;;;;17.30;99.90;;;;;;5000541;28;20196;-68
2021/08/24 04:09:43;;;;;;;;;;;17.30;99.90;;;;;;4994355;28;19961;-65
2021/08/24 04:12:09;;;;;;;14.30;8.40;;;17.30;99.90;;;;;;4998372;28;19950;-64
2021/08/24 04:14:34;;;;;;;19.95;8.45;;;17.30;99.90;;;;;;5000096;28;19962;-68
2021/08/24 04:17:00;;;;;;;;;;;17.30;99.90;;;;;;4978805;28;20098;-66
2021/08/24 04:19:26;;;;;;;;;;;17.20;99.90;;;;;;4996931;28;19953;-65
2021/08/24 04:21:51;;;;;;;;;;;17.20;99.90;;;;;;4985103;28;19946;-66
2021/08/24 04:24:17;;;;;;;;;;;17.20;99.90;;;;;;5003202;28;19946;-65
2021/08/24 04:26:42;;;;;;;;;;;17.10;99.90;;;;;;5002709;28;20711;-64
2021/08/24 04:29:08;;;;;;;;;;;17.10;99.90;;;;;;5002177;28;19950;-67
2021/08/24 04:31:36;;;;;;;;;;;17.10;99.90;;;;;;5005623;28;19958;-64
2021/08/24 04:34:01;;;;;;;;;;;17.10;99.90;;;;;;5002888;28;20403;-64
2021/08/24 04:36:27;;;;;;;;;;;17.00;99.90;;;;;;5001698;28;19952;-66
2021/08/24 04:38:52;;;;;;;;;;;17.00;99.90;;;;;;5005051;28;19953;-65
2021/08/24 04:41:18;;;;;;;;;;;17.00;99.90;;;;;;5005303;28;20075;-67
2021/08/24 04:43:43;;;;;;;;;;;17.00;99.90;;;;;;4984157;28;20406;-66
2021/08/24 04:46:09;;;;;;;;;;;17.00;99.90;;;;;;4999687;28;20012;-65
2021/08/24 04:48:34;;;;;;;14.75;8.23;;;17.00;99.90;;;;;;4998493;28;25049;-66
2021/08/24 04:51:00;;;;;;;15.25;7.00;;;17.00;99.90;;;;;;4998808;28;20756;-67
2021/08/24 04:53:26;;;;;;;16.33;8.13;;;16.90;99.90;;;;;;4995650;28;20197;-67
2021/08/24 04:55:52;;;;;;;15.15;8.05;;;16.90;99.90;;;;;;5001499;28;20192;-66
2021/08/24 04:58:19;;;;;;;15.95;8.73;;;16.90;99.90;;;;;;4998729;28;20551;-66
2021/08/24 05:00:44;;;;;;;14.38;8.93;;;16.90;99.90;;;;;;5002847;28;20681;-67
2021/08/24 05:03:10;;;;;;;16.23;7.82;;;16.90;99.90;;;;;;5002681;28;20196;-64
2021/08/24 05:05:35;;;;;;;14.05;8.00;;;16.90;99.90;;;;;;5002016;28;20272;-66
2021/08/24 05:08:01;;;;;;;14.23;8.05;;;16.90;99.90;;;;;;4981460;28;20190;-65
2021/08/24 05:10:27;;;;;;;16.77;8.10;;;16.90;99.90;;;;;;5002705;28;20208;-65
2021/08/24 05:12:53;;;;;;;16.65;8.25;;;16.90;99.90;;;;;;4978445;28;20234;-66
2021/08/24 05:15:19;;;;;;;21.60;8.18;;;16.90;99.90;;;;;;4986596;28;20203;-68
2021/08/24 05:17:51;;;;;;;12.40;8.27;;;16.90;99.90;;;;;;5001025;28;20768;-68
2021/08/24 05:20:18;;;;;;;16.20;7.65;;;16.90;99.90;;;;;;4996800;28;20205;-65
2021/08/24 05:22:44;;;;;;;14.73;8.77;;;16.90;99.90;;;;;;4998744;28;20189;-65
2021/08/24 05:25:11;;;;;;;14.90;7.97;;;16.90;99.90;;;;;;5001632;28;20184;-65
2021/08/24 05:27:38;;;;;;;16.83;8.10;;;16.90;99.90;;;;;;5002965;28;20761;-66
2021/08/24 05:30:06;;;;;;;13.88;8.45;;;16.90;99.90;;;;;;4986272;28;20216;-65
2021/08/24 05:32:32;;;;;;;16.23;8.05;;;16.90;99.90;;;;;;4997154;28;20303;-66
2021/08/24 05:34:58;;;;;;;15.40;7.50;;;17.00;99.90;;;;;;5000218;28;20218;-67
2021/08/24 05:37:24;;;;;;;12.98;7.50;;;17.00;99.90;;;;;;5001956;28;20180;-64
2021/08/24 05:39:49;;;;;;;11.38;6.82;;;17.00;99.90;;;;;;4982718;28;20200;-65
2021/08/24 05:42:15;;;;;;;19.73;7.47;;;17.00;99.90;;;;;;4982383;28;20250;-65
2021/08/24 05:44:41;;;;;;;15.73;7.55;;;17.00;99.90;;;;;;5003316;28;20214;-66
2021/08/24 05:47:07;;;;;;;16.13;6.88;;;17.10;99.90;;;;;;4996048;28;20243;-66
2021/08/24 05:49:34;;;;;;;14.80;8.07;;;17.10;99.90;;;;;;4993457;28;20189;-67
2021/08/24 05:52:00;;;;;;;13.32;7.40;;;17.10;99.90;;;;;;4990708;28;20243;-65
2021/08/24 05:54:26;;;;;;;13.35;7.10;;;17.10;99.90;;;;;;5000361;28;20261;-66
2021/08/24 05:56:52;;;;;;;12.40;6.05;;;17.20;99.90;;;;;;5003088;28;20187;-67
2021/08/24 05:59:18;;;;;;;15.07;7.47;;;17.20;99.90;;;;;;4997093;28;20188;-66
2021/08/24 06:01:44;;;;;;;13.48;7.10;;;17.20;99.90;;;;;;4999715;28;20231;-67
2021/08/24 06:04:09;;;;;;;15.10;6.47;;;17.20;99.90;;;;;;4985776;28;20204;-66
2021/08/24 06:06:37;;;;;;;15.40;5.95;;;17.20;99.90;;;;;;4997745;28;20183;-67
2021/08/24 06:09:06;;;;;;;12.13;6.22;;;17.30;99.90;;;;;;5003466;28;20669;-67
2021/08/24 06:11:38;;;;;;;11.80;6.30;;;17.30;99.90;;;;;;4981607;28;20249;-67
2021/08/24 06:14:06;;;;;;;13.57;6.07;;;17.30;99.90;;;;;;4999902;28;20232;-65
2021/08/24 06:16:33;;;;;;;10.05;6.22;;;17.30;99.90;;;;;;5001151;28;20196;-67
2021/08/24 06:18:59;;;;;;;13.02;6.20;;;17.30;99.90;;;;;;4984745;28;20207;-65
2021/08/24 06:21:25;;;;;;;11.23;6.25;;;17.40;99.90;;;;;;5002466;28;20192;-66
2021/08/24 06:23:51;;;;;;;14.95;6.00;;;17.40;99.90;;;;;;4997210;28;20529;-67
2021/08/24 06:26:17;;;;;;;16.00;6.40;;;17.40;99.90;;;;;;4975153;28;20241;-65
2021/08/24 06:28:43;;;;;;;;;;;17.40;99.90;;;;;;4996963;28;19985;-67
2021/08/24 06:31:12;;;;;;;;;;;17.40;99.90;;;;;;4999403;28;20571;-67
2021/08/24 06:33:39;;;;;;;;;;;17.50;99.90;;;;;;4998019;28;19953;-67
2021/08/24 06:36:06;;;;;;;11.05;5.43;;;17.50;99.90;;;;;;4996086;28;19950;-66
2021/08/24 06:38:32;;;;;;;;;;;17.50;99.90;;;;;;4998422;28;20193;-66
2021/08/24 06:40:58;;;;;;;;;;;17.50;99.90;;;;;;5000915;28;19961;-67
2021/08/24 06:43:23;;;;;;;;;;;17.60;99.90;;;;;;4974919;28;19966;-66
2021/08/24 06:45:49;;;;;;;;;;;17.60;99.90;;;;;;4993835;28;19950;-67
2021/08/24 06:48:15;;;;;;;;;;;17.60;99.90;;;;;;5000733;28;19946;-66
2021/08/24 06:50:40;;;;;;;12.35;5.97;;;17.70;99.90;;;;;;5000358;28;20254;-66
2021/08/24 06:53:06;;;;;;;;;;;17.70;99.90;;;;;;4994199;28;22280;-67
2021/08/24 06:55:32;;;;;;;;;;;17.70;99.90;;;;;;5000445;28;19957;-66
2021/08/24 06:57:58;;;;;;;;;;;17.70;99.90;;;;;;4998671;28;19954;-67
2021/08/24 07:00:25;;;;;;;;;;;17.80;99.90;;;;;;4996761;28;20045;-68
2021/08/24 07:02:53;;;;;;;;;;;17.80;99.90;;;;;;5002001;28;20044;-67
2021/08/24 07:05:19;;;;;;;;;;;17.90;99.90;;;;;;5000047;28;19962;-67
2021/08/24 07:07:44;;;;;;;9.60;4.78;;;17.90;99.90;;;;;;4999868;28;20200;-67
2021/08/24 07:10:11;;;;;;;;;;;18.00;99.90;;;;;;5002314;28;19950;-65
2021/08/24 07:12:37;;;;;;;8.88;5.28;;;18.00;99.90;;;;;;4998720;28;20053;-67
2021/08/24 07:15:04;;;;;;;10.07;4.68;;;18.20;99.90;;;;;;5000304;28;20241;-66
2021/08/24 07:17:30;;;;;;;12.40;4.97;;;18.30;99.90;;;;;;4999409;28;20180;-68
2021/08/24 07:19:55;;;;;;;7.30;4.32;;;18.40;99.90;;;;;;4984748;28;20195;-68
2021/08/24 07:22:21;;;;;;;12.40;4.13;;;18.50;99.90;;;;;;4995521;28;20187;-66
2021/08/24 07:24:47;;;;;;;10.63;4.57;;;18.60;99.90;;;;;;5000037;28;20641;-68
2021/08/24 07:27:12;;;;;;;11.57;4.75;;;18.70;99.90;;;;;;5001848;28;20188;-67
2021/08/24 07:29:38;;;;;;;10.73;4.53;;;18.80;99.90;;;;;;4999087;28;20231;-66
2021/08/24 07:32:06;;;;;;;13.82;4.70;;;18.90;99.90;;;;;;4999136;28;20181;-68
2021/08/24 07:34:31;;;;;;;9.60;4.47;;;19.00;99.90;;;;;;5000032;28;20387;-66
2021/08/24 07:36:57;;;;;;;67.03;8.65;;;19.10;99.90;;;;;;5002314;28;20280;-65
2021/08/24 07:39:23;;;;;;;11.80;4.18;;;19.20;99.90;;;;;;4987959;28;20191;-67
2021/08/24 07:41:49;;;;;;;13.48;3.60;;;19.30;99.90;;;;;;4987591;28;20295;-66
2021/08/24 07:44:14;;;;;;;9.13;4.50;;;19.40;99.90;;;;;;5002342;28;20264;-66
2021/08/24 07:46:40;;;;;;;14.15;4.53;;;19.50;99.90;;;;;;5000378;28;20335;-67
2021/08/24 07:49:06;;;;;;;10.63;6.97;;;19.50;99.90;;;;;;5004373;28;20188;-67
2021/08/24 07:51:31;;;;;;;13.10;6.32;;;19.60;99.90;;;;;;4983505;28;20216;-73
2021/08/24 07:53:59;;;;;;;14.50;4.50;;;19.70;99.90;;;;;;5004859;28;20189;-72
2021/08/24 07:56:25;;;;;;;11.15;4.28;;;19.70;99.90;;;;;;5007491;28;20653;-69
2021/08/24 07:58:52;;;;;;;8.68;4.00;;;19.70;99.90;;;;;;5001627;28;20194;-66
2021/08/24 08:01:17;;;;;;;100.53;13.52;;;19.70;99.90;;;;;;5004525;28;20188;-64
2021/08/24 08:03:43;;;;;;;11.02;4.25;;;19.70;99.90;;;;;;4988037;28;20220;-69
2021/08/24 08:06:09;;;;;;;9.38;4.00;;;19.70;99.90;;;;;;5000968;28;20300;-66
2021/08/24 08:08:34;;;;;;;10.02;3.35;;;19.70;99.90;;;;;;5001741;28;20210;-67
2021/08/24 08:11:00;;;;;;;6.60;3.03;;;19.70;99.90;;;;;;5001314;28;20311;-68
2021/08/24 08:13:28;;;;;;;4.90;3.08;;;19.70;99.90;;;;;;5000292;28;20228;-67
2021/08/24 08:15:54;;;;;;;9.38;3.05;;;19.70;99.90;;;;;;5005428;28;20419;-67
2021/08/24 08:18:20;;;;;;;7.13;3.00;;;19.60;99.90;;;;;;5007171;28;20931;-67
2021/08/24 08:20:47;;;;;;;5.18;2.75;;;19.60;99.90;;;;;;5003415;28;20275;-65
2021/08/24 08:23:14;;;;;;;;;;;19.70;99.90;;;;;;5005761;28;20180;-67
2021/08/24 08:25:39;;;;;;;4.97;2.70;;;19.70;99.70;;;;;;5003604;28;19989;-64
2021/08/24 08:28:05;;;;;;;3.90;2.30;;;19.70;99.50;;;;;;5001057;28;20148;-67
2021/08/24 08:30:34;;;;;;;5.35;2.53;;;19.90;99.60;;;;;;5005702;28;20203;-67
2021/08/24 08:33:01;;;;;;;11.05;3.00;;;20.10;99.40;;;;;;5002295;28;20240;-66
2021/08/24 08:35:27;;;;;;;8.65;2.85;;;20.30;99.20;;;;;;5002318;28;20189;-66
2021/08/24 08:37:53;;;;;;;8.05;2.83;;;20.50;99.10;;;;;;5007884;28;20264;-65
2021/08/24 08:40:32;;;;;;;4.00;2.42;;;20.80;99.00;;;;;;4987415;28;20284;-66
2021/08/24 08:43:16;;;;;;;6.10;2.45;;;21.10;98.20;;;;;;4981001;28;20269;-68
2021/08/24 08:45:48;;;;;;;5.60;2.22;;;21.30;97.60;;;;;;5004810;28;20192;-66
2021/08/24 08:48:29;;;;;;;;;;;21.50;97.10;;;;;;5002515;28;20192;-65
2021/08/24 08:50:57;;;;;;;4.57;2.40;;;21.70;96.60;;;;;;5004349;28;20958;-66
2021/08/24 08:53:28;;;;;;;;;;;22.10;96.10;;;;;;5000828;28;20220;-67
2021/08/24 08:56:33;;;;;;;5.78;2.30;;;22.40;95.40;;;;;;5004335;28;20160;-66
2021/08/24 08:59:21;;;;;;;4.18;1.90;;;22.80;94.40;;;;;;5001479;28;20203;-66
2021/08/24 09:02:01;;;;;;;7.30;2.08;;;23.10;93.60;;;;;;4983422;28;20190;-67
2021/08/24 09:04:37;;;;;;;4.75;1.75;;;23.20;92.50;;;;;;4984209;28;20199;-67
2021/08/24 09:07:09;;;;;;;5.85;1.85;;;23.30;91.60;;;;;;5001075;28;20188;-67
2021/08/24 09:09:38;;;;;;;6.13;2.13;;;23.40;91.00;;;;;;5004276;28;20188;-67
2021/08/24 09:12:06;;;;;;;5.07;2.40;;;23.60;90.30;;;;;;4995130;28;20197;-68
2021/08/24 09:14:39;;;;;;;5.10;2.25;;;23.70;89.60;;;;;;5002127;28;20193;-66
2021/08/24 09:17:21;;;;;;;4.00;1.90;;;23.90;88.10;;;;;;5003167;28;20299;-70
2021/08/24 09:20:01;;;;;;;5.18;1.92;;;23.90;86.80;;;;;;5001917;28;20190;-67
2021/08/24 09:22:27;;;;;;;5.10;2.10;;;24.00;86.40;;;;;;4984163;28;20204;-69
2021/08/24 09:24:53;;;;;;;;;;;24.20;85.60;;;;;;5000590;28;19947;-67
2021/08/24 09:27:45;;;;;;;3.67;1.67;;;24.50;84.10;;;;;;4988584;28;20044;-65
2021/08/24 09:30:11;;;;;;;5.32;1.80;;;24.70;82.70;;;;;;5000431;28;20232;-72
2021/08/24 09:32:37;;;;;;;;;;;24.80;81.90;;;;;;4984229;28;20193;-68
2021/08/24 09:35:15;;;;;;;3.55;1.52;;;25.00;81.00;;;;;;5002434;28;19992;-68
2021/08/24 09:37:40;;;;;;;;;;;25.20;80.00;;;;;;5002898;28;20211;-69
2021/08/24 09:40:09;;;;;;;4.85;1.80;;;25.30;78.70;;;;;;5002398;28;20460;-69
2021/08/24 09:42:44;;;;;;;7.65;1.88;;;25.40;77.70;;;;;;4996380;28;20211;-69
2021/08/24 09:45:19;;;;;;;6.03;1.80;;;25.60;76.50;;;;;;4998520;28;20219;-68
2021/08/24 09:47:56;;;;;;;4.13;1.85;;;25.80;75.30;;;;;;5000644;28;20242;-66
2021/08/24 09:50:28;;;;;;;5.25;1.65;;;25.90;74.70;;;;;;5001797;28;20295;-66
2021/08/24 09:52:54;;;;;;;6.25;2.10;;;26.00;74.00;;;;;;4999971;28;20184;-66
2021/08/24 09:55:27;;;;;;;5.68;2.15;;;26.20;73.10;;;;;;5001414;28;20180;-62
2021/08/24 09:58:01;;;;;;;8.13;3.30;;;26.30;72.50;;;;;;5002573;28;20181;-67
2021/08/24 10:00:36;;;;;;;16.20;4.55;;;26.50;72.00;;;;;;4982317;28;20199;-67
2021/08/24 10:03:02;;;;;;;;;;;26.60;71.30;;;;;;5000924;28;20766;-67
2021/08/24 10:05:27;;;;;;;;;;;26.70;69.90;;;;;;4999314;28;20374;-65
2021/08/24 10:07:54;;;;;;;;;;;26.80;69.30;;;;;;5000254;28;19950;-67
2021/08/24 10:10:35;;;;;;;7.80;3.03;;;26.70;68.10;;;;;;5003313;28;20463;-69
2021/08/24 10:13:20;;;;;;;;;;;26.60;67.50;;;;;;4997886;28;20230;-67
2021/08/24 10:15:48;;;;;;;9.85;2.60;;;26.60;67.20;;;;;;5000145;28;20183;-67
2021/08/24 10:18:22;;;;;;;7.30;2.70;;;26.70;67.50;;;;;;4998768;28;20196;-66
2021/08/24 10:20:56;;;;;;;4.13;2.00;;;26.80;67.30;;;;;;4986551;28;20200;-69
2021/08/24 10:23:34;;;;;;;6.60;1.80;;;26.80;67.20;;;;;;4984058;28;20214;-71
2021/08/24 10:26:04;;;;;;;7.55;2.20;;;27.20;66.70;;;;;;5000161;28;20184;-68
2021/08/24 10:28:55;;;;;;;5.85;2.40;;;27.90;64.70;;;;;;5001612;28;20256;-70
2021/08/24 10:31:51;;;;;;;4.97;2.25;;;28.30;62.20;;;;;;5000938;28;20220;-67
2021/08/24 10:34:40;;;;;;;5.97;2.20;;;28.50;60.40;;;;;;5002020;28;20283;-68
2021/08/24 10:37:27;;;;;;;4.60;2.10;;;29.10;58.90;;;;;;4999628;28;20293;-69
2021/08/24 10:40:12;;;;;;;3.95;1.92;;;30.00;56.40;;;;;;5000729;28;20254;-68
2021/08/24 10:43:10;;;;;;;6.55;2.17;;;31.00;54.00;;;;;;4981839;28;20194;-70
2021/08/24 10:45:38;;;;;;;4.20;1.92;;;32.30;52.60;;;;;;5001700;28;20202;-66
2021/08/24 10:48:15;;;;;;;5.60;1.80;;;33.10;49.50;;;;;;5001061;28;20200;-67
2021/08/24 10:51:10;;;;;;;6.57;1.75;;;33.90;46.70;;;;;;5002666;28;20207;-71
2021/08/24 10:53:57;;;;;;;6.32;2.08;;;34.70;44.50;;;;;;4999495;28;20188;-68
2021/08/24 10:56:48;;;;;;;5.25;1.80;;;35.20;43.10;;;;;;4999309;28;21106;-70
2021/08/24 10:59:29;;;;;;;5.40;1.73;;;35.70;42.20;;;;;;4981480;28;20645;-68
2021/08/24 11:01:58;;;;;;;4.07;1.80;;;36.20;40.60;;;;;;5001380;28;20654;-66
2021/08/24 11:05:03;;;;;;;3.83;1.50;;;36.60;39.80;;;;;;4999362;28;20651;-66
2021/08/24 11:07:52;;;;;;;2.70;1.40;;;36.90;38.60;;;;;;5001953;28;20180;-67
2021/08/24 11:10:32;;;;;;;2.92;1.35;;;37.10;37.70;;;;;;4999358;28;20199;-71
2021/08/24 11:13:03;;;;;;;4.22;1.70;;;37.40;37.50;;;;;;4998236;28;20228;-69
2021/08/24 11:15:42;;;;;;;3.75;1.50;;;37.60;36.30;;;;;;4998671;28;20188;-70
2021/08/24 11:18:23;;;;;;;3.70;1.60;;;37.80;36.40;;;;;;4998476;28;20219;-69
2021/08/24 11:20:56;;;;;;;4.45;1.40;;;37.80;35.70;;;;;;5000296;28;20195;-69
2021/08/24 11:23:41;;;;;;;3.58;1.60;;;37.90;34.90;;;;;;4976006;28;20211;-67
2021/08/24 11:26:22;;;;;;;3.17;1.40;;;38.10;34.70;;;;;;4978673;28;20202;-67
2021/08/24 11:29:00;;;;;;;3.83;1.30;;;38.20;34.50;;;;;;4978329;28;20316;-69
2021/08/24 11:31:46;;;;;;;3.60;1.23;;;38.10;34.40;;;;;;4982026;28;20290;-67
2021/08/24 11:34:17;;;;;;;3.40;1.48;;;37.90;35.30;;;;;;4981419;28;20634;-69
2021/08/24 11:37:15;;;;;;;4.13;1.40;;;37.80;34.80;;;;;;4979806;28;20642;-68
2021/08/24 11:39:49;;;;;;;4.60;1.50;;;37.80;34.30;;;;;;4898723;28;20664;-68
2021/08/24 11:42:37;;;;;;;3.03;1.50;;;37.80;34.30;;;;;;4964095;28;20667;-68
2021/08/24 11:45:06;;;;;;;5.20;1.42;;;37.90;34.10;;;;;;4982066;28;20178;-70
2021/08/24 11:47:44;;;;;;;3.80;1.45;;;37.80;33.90;;;;;;4978678;28;20189;-68
2021/08/24 11:50:28;;;;;;;3.53;1.50;;;37.70;33.70;;;;;;4967278;28;20207;-68
2021/08/24 11:53:07;;;;;;;6.28;1.50;;;37.60;33.50;;;;;;4962065;28;20208;-71
2021/08/24 11:55:42;;;;;;;6.28;1.70;;;37.50;33.30;;;;;;4981104;28;20189;-70
2021/08/24 11:58:31;;;;;;;2.47;1.30;;;37.40;33.90;;;;;;4977170;28;20218;-71
2021/08/24 12:01:01;;;;;;;5.80;1.60;;;37.40;34.10;;;;;;4977393;28;20200;-69
2021/08/24 12:03:27;;;;;;;2.60;1.30;;;37.30;34.10;;;;;;4979360;28;20271;-67
2021/08/24 12:06:06;;;;;;;2.78;1.23;;;37.20;34.20;;;;;;4982333;28;20296;-70
2021/08/24 12:08:40;;;;;;;3.58;1.25;;;37.10;34.30;;;;;;4980272;28;20198;-70
2021/08/24 12:11:14;;;;;;;3.03;1.27;;;37.10;34.40;;;;;;4980662;28;20255;-70
2021/08/24 12:13:46;;;;;;;3.03;1.13;;;37.10;34.40;;;;;;4978642;28;20228;-72
2021/08/24 12:16:20;;;;;;;3.88;1.42;;;37.10;34.30;;;;;;4982494;28;20195;-67
2021/08/24 12:18:48;;;;;;;3.55;1.38;;;37.30;33.50;;;;;;4962624;28;20203;-68
2021/08/24 12:21:34;;;;;;;5.82;1.60;;;37.30;33.30;;;;;;4981481;28;20259;-69
2021/08/24 12:24:24;;;;;;;6.03;1.50;;;37.40;33.20;;;;;;4978788;28;20223;-67
2021/08/24 12:26:51;;;;;;;2.10;1.35;;;37.30;33.10;;;;;;4983416;28;20196;-67
2021/08/24 12:29:34;;;;;;;3.00;1.40;;;37.30;32.90;;;;;;4982053;28;20197;-66
2021/08/24 12:32:02;;;;;;;5.72;1.33;;;37.40;33.10;;;;;;4985520;28;20212;-69
2021/08/24 12:34:33;;;;;;;3.72;1.30;;;37.40;33.50;;;;;;4981849;28;20367;-69
2021/08/24 12:37:04;;;;;;;3.72;1.30;;;37.40;32.40;;;;;;4981373;28;20185;-68
2021/08/24 12:39:34;;;;;;;2.00;1.40;;;37.40;32.30;;;;;;4968271;28;20309;-71
2021/08/24 12:42:18;;;;;;;5.28;1.50;;;37.40;32.20;;;;;;4981475;28;20201;-68
2021/08/24 12:44:48;;;;;;;3.03;1.20;;;37.40;32.30;;;;;;4985270;28;20188;-69
2021/08/24 12:47:30;;;;;;;2.53;1.27;;;37.30;32.90;;;;;;4981928;28;20250;-70
2021/08/24 12:50:07;;;;;;;1.98;1.40;;;37.30;32.20;;;;;;4982934;28;20669;-69
2021/08/24 12:52:43;;;;;;;4.90;1.25;;;37.20;31.70;;;;;;4983505;28;20244;-67
2021/08/24 12:55:42;;;;;;;5.60;1.70;;;37.20;32.00;;;;;;4984357;28;20192;-70
2021/08/24 12:58:24;;;;;;;3.17;1.50;;;37.00;32.30;;;;;;4931450;28;20185;-70
2021/08/24 13:01:14;;;;;;;1.90;1.30;;;36.90;32.10;;;;;;4982090;28;20274;-71
2021/08/24 13:04:03;;;;;;;2.83;1.20;;;36.70;32.50;;;;;;4983397;28;20305;-68
2021/08/24 13:06:34;;;;;;;3.50;1.20;;;36.50;31.80;;;;;;4982853;28;20181;-68
2021/08/24 13:09:20;;;;;;;2.78;1.30;;;36.30;31.50;;;;;;4985196;28;20707;-70
2021/08/24 13:12:16;;;;;;;4.80;1.40;;;36.10;31.90;;;;;;4981457;28;20247;-68
2021/08/24 13:14:58;;;;;;;4.80;1.55;;;35.90;32.50;;;;;;4980378;28;20220;-71
2021/08/24 13:17:44;;;;;;;3.25;1.20;;;35.70;32.70;;;;;;4981496;28;21531;-65
2021/08/24 13:20:25;;;;;;;2.08;1.35;;;35.40;33.50;;;;;;4982236;28;20676;-67